Time;durP1;ratioP1;P1;durP2;ratioP2;P2;SDS_P1;SDS_P2;PMS_P1;PMS_P2;Temp;Humidity;BMP_temperature;BMP_pressure;BME280_temperature;BME280_humidity;BME280_pressure;Samples;Min_cycle;Max_cycle;Signal;HPM_P1;HPM_P2
2021/06/03 00:00:28;;;;;;;3.80;2.40;;;;;;;23.68;24.64;101280.25;3572003;40;20083;-66
2021/06/03 00:02:56;;;;;;;2.97;2.00;;;;;;;23.66;24.56;101279.56;3577066;40;20303;-66
2021/06/03 00:05:26;;;;;;;4.07;2.17;;;;;;;23.67;24.66;101279.38;3576060;40;20431;-66
2021/06/03 00:07:55;;;;;;;3.50;2.10;;;;;;;23.67;24.54;101281.31;3576923;40;20393;-66
2021/06/03 00:10:26;;;;;;;4.07;2.30;;;;;;;23.68;24.42;101277.44;3578369;40;20139;-66
2021/06/03 00:12:56;;;;;;;4.05;2.17;;;;;;;23.69;24.91;101281.97;3579007;40;20049;-66
2021/06/03 00:15:25;;;;;;;4.03;2.00;;;;;;;23.67;25.09;101281.31;3580380;40;20056;-66
2021/06/03 00:17:54;;;;;;;2.92;1.95;;;;;;;23.67;24.54;101281.31;3578860;40;20049;-66
2021/06/03 00:20:28;;;;;;;3.40;1.98;;;;;;;23.68;24.98;101271.84;3574257;40;20059;-66
2021/06/03 00:23:16;;;;;;;3.80;2.17;;;;;;;23.65;24.58;101266.69;3578355;40;20149;-66
2021/06/03 00:25:46;;;;;;;3.17;2.03;;;;;;;23.67;24.52;101273.78;3574669;40;20041;-66
2021/06/03 00:28:35;;;;;;;3.47;2.20;;;;;;;23.67;24.76;101276.59;3578498;40;20044;-66
2021/06/03 00:31:02;;;;;;;3.47;2.00;;;;;;;23.66;25.16;101262.81;3578400;40;20052;-66
2021/06/03 00:33:31;;;;;;;3.58;2.05;;;;;;;23.66;24.76;101268.41;3575996;40;20059;-66
2021/06/03 00:35:59;;;;;;;3.25;2.15;;;;;;;23.66;24.79;101262.81;3579635;40;20045;-66
2021/06/03 00:38:26;;;;;;;2.97;2.08;;;;;;;23.65;25.26;101266.69;3577752;40;20472;-67
2021/06/03 00:40:54;;;;;;;3.65;2.20;;;;;;;23.63;25.05;101272.47;3581079;40;20473;-66
2021/06/03 00:43:22;;;;;;;3.20;2.00;;;;;;;23.63;25.29;101266.88;3579705;40;20072;-66
2021/06/03 00:45:51;;;;;;;4.35;2.13;;;;;;;23.65;25.49;101266.69;3576549;40;20080;-66
2021/06/03 00:48:20;;;;;;;3.53;2.10;;;;;;;23.61;25.10;101266.25;3579179;40;20056;-66
2021/06/03 00:50:50;;;;;;;3.30;2.08;;;;;;;23.61;24.98;101255.09;3579370;40;20068;-66
2021/06/03 00:53:19;;;;;;;4.18;2.30;;;;;;;23.61;25.30;101257.00;3575914;40;20333;-66
2021/06/03 00:55:51;;;;;;;3.05;2.08;;;;;;;23.59;25.47;101265.59;3582741;40;20048;-66
2021/06/03 00:58:23;;;;;;;3.92;2.25;;;;;;;23.56;25.26;101263.19;3582814;40;20071;-66
2021/06/03 01:00:54;;;;;;;3.00;2.10;;;;;;;23.56;25.42;101268.78;3578296;40;20052;-66
2021/06/03 01:03:23;;;;;;;3.83;2.10;;;;;;;23.53;25.83;101265.56;3578760;40;20048;-66
2021/06/03 01:05:55;;;;;;;4.70;2.40;;;;;;;23.53;25.70;101262.78;3576849;40;20049;-66
2021/06/03 01:08:26;;;;;;;3.47;2.22;;;;;;;23.50;25.82;101264.03;3577766;40;20305;-66
2021/06/03 01:11:00;;;;;;;3.20;2.10;;;;;;;23.48;26.17;101273.69;3580741;40;20113;-66
2021/06/03 01:13:38;;;;;;;2.88;1.80;;;;;;;23.46;26.53;101262.75;3580669;40;20056;-66
2021/06/03 01:16:08;;;;;;;4.20;2.42;;;;;;;23.43;26.18;101268.72;3577550;40;20088;-67
2021/06/03 01:18:40;;;;;;;3.83;2.42;;;;;;;23.39;26.15;101270.19;3579989;40;21432;-66
2021/06/03 01:21:13;;;;;;;4.38;2.22;;;;;;;23.39;25.96;101267.38;3578339;40;20060;-66
2021/06/03 01:23:48;;;;;;;4.45;2.25;;;;;;;23.35;26.09;101266.09;3578814;40;20560;-66
2021/06/03 01:26:17;;;;;;;4.57;2.60;;;;;;;23.32;25.99;101260.91;3571717;40;20052;-66
2021/06/03 01:28:49;;;;;;;3.90;2.63;;;;;;;23.28;26.28;101256.81;3581274;40;20032;-66
2021/06/03 01:31:17;;;;;;;3.50;2.50;;;;;;;23.24;26.02;101266.66;3575179;40;20428;-66
2021/06/03 01:33:45;;;;;;;3.92;2.50;;;;;;;23.20;26.29;101265.38;3575654;40;20057;-66
2021/06/03 01:36:16;;;;;;;5.38;2.60;;;;;;;23.17;26.50;101261.06;3575728;40;20052;-66
2021/06/03 01:38:45;;;;;;;3.42;2.30;;;;;;;23.13;26.45;101256.09;3579517;40;20089;-66
2021/06/03 01:41:14;;;;;;;4.03;2.40;;;;;;;23.10;26.33;101254.56;3579871;40;20089;-66
2021/06/03 01:43:46;;;;;;;3.45;2.20;;;;;;;23.10;26.64;101253.72;3575130;40;20053;-66
2021/06/03 01:46:15;;;;;;;4.35;2.75;;;;;;;23.06;26.90;101256.03;3576903;40;20061;-66
2021/06/03 01:48:43;;;;;;;4.72;2.55;;;;;;;23.02;26.35;101256.66;3581190;40;20045;-66
2021/06/03 01:51:17;;;;;;;3.28;2.47;;;;;;;22.99;27.09;101254.28;3577173;40;20045;-66
2021/06/03 01:53:48;;;;;;;3.67;2.70;;;;;;;22.95;26.76;101256.63;3579605;40;20056;-66
2021/06/03 01:56:17;;;;;;;4.22;2.58;;;;;;;22.93;26.70;101270.78;3580435;40;20041;-66
2021/06/03 01:58:48;;;;;;;4.40;2.60;;;;;;;22.91;26.91;101270.09;3580251;40;20061;-66
2021/06/03 02:01:19;;;;;;;3.55;2.38;;;;;;;22.84;26.96;101269.19;3577099;40;20357;-66
2021/06/03 02:03:48;;;;;;;6.68;2.60;;;;;;;22.83;27.17;101272.16;3576957;40;20088;-66
2021/06/03 02:06:16;;;;;;;4.03;2.60;;;;;;;22.81;27.34;101269.56;3580563;40;20045;-66
2021/06/03 02:08:45;;;;;;;5.20;2.80;;;;;;;22.80;27.31;101269.78;3580914;40;20056;-66
2021/06/03 02:11:20;;;;;;;3.65;2.47;;;;;;;22.78;27.32;101272.78;3578788;40;20103;-66
2021/06/03 02:13:58;;;;;;;5.18;2.85;;;;;;;22.78;27.67;101277.50;3579088;40;20120;-66
2021/06/03 02:16:39;;;;;;;3.67;2.40;;;;;;;22.74;27.92;101277.03;3577832;40;20543;-66
2021/06/03 02:19:08;;;;;;;;;;;;;;;22.42;27.43;101275.69;3574861;40;20134;-66
2021/06/03 02:21:47;;;;;;;3.85;2.38;;;;;;;22.64;27.25;101279.31;3584279;40;19932;-66
2021/06/03 02:24:16;;;;;;;4.45;2.30;;;;;;;22.66;27.10;101277.16;3575057;40;20056;-66
2021/06/03 02:26:48;;;;;;;3.97;2.30;;;;;;;22.62;27.29;101277.78;3577503;40;20060;-66
2021/06/03 02:29:19;;;;;;;3.83;2.20;;;;;;;22.63;27.55;101280.38;3576143;40;20418;-67
2021/06/03 02:32:03;;;;;;;4.32;2.55;;;;;;;22.58;27.46;101288.47;3578380;40;20048;-66
2021/06/03 02:34:38;;;;;;;3.63;2.10;;;;;;;22.56;27.58;101282.25;3572490;40;20049;-66
2021/06/03 02:37:11;;;;;;;3.95;2.58;;;;;;;22.58;27.76;101288.47;3568726;40;20107;-66
2021/06/03 02:39:45;;;;;;;4.22;2.42;;;;;;;22.53;27.98;101283.50;3577317;40;20044;-66
2021/06/03 02:42:13;;;;;;;3.35;1.98;;;;;;;22.51;27.58;101288.41;3581474;40;20059;-66
2021/06/03 02:44:43;;;;;;;3.90;2.47;;;;;;;22.52;28.04;101294.84;3576277;40;20052;-66
2021/06/03 02:47:12;;;;;;;3.85;2.30;;;;;;;22.47;27.76;101289.91;3575785;40;20409;-66
2021/06/03 02:49:42;;;;;;;4.00;2.35;;;;;;;22.46;27.62;101304.91;3574963;40;20053;-66
2021/06/03 02:52:11;;;;;;;3.90;2.38;;;;;;;22.44;27.77;101306.16;3577287;40;20062;-66
2021/06/03 02:54:44;;;;;;;4.15;2.10;;;;;;;22.42;27.82;101306.34;3572981;40;20049;-66
2021/06/03 02:57:14;;;;;;;4.18;2.40;;;;;;;22.42;28.08;101311.91;3575415;40;20045;-66
2021/06/03 02:59:43;;;;;;;6.55;2.45;;;;;;;22.43;28.06;101310.84;3576498;40;20059;-66
2021/06/03 03:02:12;;;;;;;3.47;2.30;;;;;;;22.39;28.07;101315.13;3579432;40;20049;-66
2021/06/03 03:04:40;;;;;;;4.18;2.38;;;;;;;22.38;28.34;101315.31;3573535;40;20402;-66
2021/06/03 03:07:08;;;;;;;4.10;2.40;;;;;;;22.37;28.16;101321.94;3582111;40;20048;-66
2021/06/03 03:09:37;;;;;;;3.50;2.22;;;;;;;22.34;28.14;101331.56;3572679;40;20538;-66
2021/06/03 03:12:10;;;;;;;3.92;2.25;;;;;;;22.34;28.42;101327.91;3576964;40;20051;-66
2021/06/03 03:14:39;;;;;;;3.35;1.90;;;;;;;22.30;27.67;101334.97;3577462;40;20073;-66
2021/06/03 03:17:09;;;;;;;3.30;2.00;;;;;;;22.30;28.33;101330.25;3575514;40;20056;-66
2021/06/03 03:19:37;;;;;;;3.33;2.08;;;;;;;22.27;28.42;101340.91;3576236;40;20053;-66
2021/06/03 03:22:06;;;;;;;2.95;2.00;;;;;;;22.25;28.55;101335.53;3576283;40;20051;-67
2021/06/03 03:24:37;;;;;;;3.08;1.98;;;;;;;22.22;28.20;101341.53;3574407;40;20077;-67
2021/06/03 03:27:06;;;;;;;2.65;1.73;;;;;;;22.22;28.59;101343.44;3577780;40;20049;-66
2021/06/03 03:29:35;;;;;;;3.15;2.20;;;;;;;22.18;28.38;101354.06;3578181;40;20401;-66
2021/06/03 03:32:03;;;;;;;3.10;2.22;;;;;;;22.16;28.19;101343.13;3578772;40;20085;-69
2021/06/03 03:34:33;;;;;;;3.88;2.20;;;;;;;22.14;28.32;101348.06;3575938;40;20055;-70
2021/06/03 03:37:01;;;;;;;3.63;1.98;;;;;;;22.09;28.81;101344.97;3576090;40;20057;-66
2021/06/03 03:39:31;;;;;;;2.53;1.80;;;;;;;22.07;28.56;101352.66;3576327;40;20067;-66
2021/06/03 03:42:00;;;;;;;2.85;1.85;;;;;;;22.04;28.69;101347.50;3575252;40;20061;-66
2021/06/03 03:44:28;;;;;;;2.92;1.67;;;;;;;22.02;28.42;101348.75;3575724;40;20052;-66
2021/06/03 03:46:55;;;;;;;3.05;1.90;;;;;;;21.99;28.67;101350.00;3567873;40;20059;-66
2021/06/03 03:49:24;;;;;;;2.92;1.88;;;;;;;21.97;28.49;101346.56;3577278;40;20052;-66
2021/06/03 03:52:00;;;;;;;3.17;1.98;;;;;;;21.95;28.57;101356.16;3576257;40;20057;-66
2021/06/03 03:54:29;;;;;;;3.10;2.10;;;;;;;21.91;28.90;101352.03;3573737;40;20582;-66
2021/06/03 03:56:58;;;;;;;3.03;2.13;;;;;;;21.90;28.29;101358.69;3578235;40;20089;-66
2021/06/03 03:59:25;;;;;;;2.78;2.00;;;;;;;21.87;28.86;101359.06;3575884;40;20052;-66
2021/06/03 04:01:54;;;;;;;3.53;2.13;;;;;;;21.84;28.76;101360.31;3578729;40;20049;-66
2021/06/03 04:04:24;;;;;;;3.78;1.90;;;;;;;21.82;29.23;101360.50;3578978;40;20182;-66
2021/06/03 04:07:45;;;;;;;3.17;1.98;;;;;;;21.76;28.96;101364.06;3578035;40;20052;-66
2021/06/03 04:10:17;;;;;;;3.10;2.15;;;;;;;21.78;29.43;101369.44;3572270;40;20418;-66
2021/06/03 04:12:47;;;;;;;3.53;2.17;;;;;;;21.75;28.98;101370.69;3579442;40;20040;-65
2021/06/03 04:15:16;;;;;;;3.28;2.05;;;;;;;21.75;28.97;101375.38;3575171;40;20049;-66
2021/06/03 04:17:45;;;;;;;2.83;1.95;;;;;;;21.73;29.29;101377.53;3579551;40;20102;-66
2021/06/03 04:20:19;;;;;;;4.63;2.17;;;;;;;21.75;29.39;101380.97;3572113;40;20111;-66
2021/06/03 04:22:48;;;;;;;;;;;;;;;21.45;29.00;101377.28;3573254;40;20390;-66
2021/06/03 04:25:20;;;;;;;3.65;1.83;;;;;;;21.69;29.81;101377.03;3581783;40;20269;-66
2021/06/03 04:27:54;;;;;;;3.30;2.08;;;;;;;21.68;29.28;101380.88;3584562;40;20106;-66
2021/06/03 04:30:25;;;;;;;3.33;2.17;;;;;;;21.70;29.06;101380.69;3574688;40;20059;-66
2021/06/03 04:32:53;;;;;;;3.20;2.30;;;;;;;21.67;29.62;101384.72;3579843;40;20056;-66
2021/06/03 04:35:23;;;;;;;3.33;2.17;;;;;;;21.69;29.39;101387.31;3582874;40;20056;-66
2021/06/03 04:37:52;;;;;;;3.13;1.75;;;;;;;21.66;29.45;101390.47;3578248;40;20398;-66
2021/06/03 04:40:23;;;;;;;2.70;1.80;;;;;;;21.68;30.10;101391.16;3573570;40;20057;-66
2021/06/03 04:43:10;;;;;;;2.88;2.03;;;;;;;21.65;29.52;101388.75;3573873;40;20049;-66
2021/06/03 04:45:39;;;;;;;3.85;2.15;;;;;;;21.65;29.57;101394.34;3577979;40;20064;-65
2021/06/03 04:48:08;;;;;;;3.85;2.45;;;;;;;21.66;29.53;101396.03;3580806;40;20052;-66
2021/06/03 04:50:37;;;;;;;4.35;2.13;;;;;;;21.65;29.58;101395.19;3578842;40;20045;-66
2021/06/03 04:53:06;;;;;;;3.03;1.95;;;;;;;21.65;29.58;101395.19;3577719;40;20390;-66
2021/06/03 04:55:36;;;;;;;4.10;2.35;;;;;;;21.67;30.26;101397.75;3580597;40;20074;-66
2021/06/03 04:58:12;;;;;;;3.60;2.00;;;;;;;21.67;30.15;101397.75;3576551;40;20060;-66
2021/06/03 05:00:42;;;;;;;3.17;1.90;;;;;;;21.67;30.22;101398.63;3574533;40;20063;-66
2021/06/03 05:03:12;;;;;;;3.85;2.15;;;;;;;21.68;30.27;101400.38;3576899;40;20054;-65
2021/06/03 05:05:44;;;;;;;3.80;1.95;;;;;;;21.66;30.22;101402.47;3574201;40;20319;-67
2021/06/03 05:08:21;;;;;;;3.33;1.90;;;;;;;21.70;30.13;101397.38;3579277;40;20061;-66
2021/06/03 05:10:50;;;;;;;3.22;1.90;;;;;;;21.74;30.67;101402.38;3576777;40;20084;-66
2021/06/03 05:13:18;;;;;;;4.03;2.05;;;;;;;21.75;29.95;101404.09;3580998;40;20045;-66
2021/06/03 05:15:46;;;;;;;3.83;2.10;;;;;;;21.78;30.55;101405.66;3576023;40;20073;-66
2021/06/03 05:18:14;;;;;;;3.45;2.15;;;;;;;21.80;30.60;101411.91;3579166;40;20486;-66
2021/06/03 05:20:42;;;;;;;3.50;1.90;;;;;;;21.81;30.15;101413.63;3579373;40;20026;-66
2021/06/03 05:23:09;;;;;;;4.57;2.00;;;;;;;21.85;30.05;101416.88;3583123;40;20077;-67
2021/06/03 05:25:37;;;;;;;3.28;2.20;;;;;;;21.87;30.31;101421.19;3580037;40;20056;-66
2021/06/03 05:28:06;;;;;;;3.75;2.10;;;;;;;21.91;30.30;101419.75;3583865;40;20349;-66
2021/06/03 05:30:34;;;;;;;3.55;2.17;;;;;;;21.92;30.29;101424.25;3579998;40;20405;-66
2021/06/03 05:33:03;;;;;;;3.58;2.15;;;;;;;21.95;30.38;101431.38;3578289;40;20044;-66
2021/06/03 05:35:30;;;;;;;3.50;1.83;;;;;;;21.98;30.15;101426.28;3578384;40;20060;-66
2021/06/03 05:37:58;;;;;;;3.35;2.17;;;;;;;22.01;30.16;101438.94;3579193;40;20041;-66
2021/06/03 05:40:28;;;;;;;3.97;2.08;;;;;;;22.05;30.65;101437.53;3578152;40;20133;-66
2021/06/03 05:42:58;;;;;;;3.60;1.92;;;;;;;22.07;30.91;101441.81;3575272;40;20069;-66
2021/06/03 05:45:28;;;;;;;3.00;2.00;;;;;;;22.10;30.46;101443.34;3572941;40;20127;-66
2021/06/03 05:47:55;;;;;;;3.42;1.90;;;;;;;22.10;30.36;101444.22;3576808;40;20426;-66
2021/06/03 05:50:25;;;;;;;2.40;1.80;;;;;;;22.11;30.07;101448.75;3572502;40;20350;-66
2021/06/03 05:52:54;;;;;;;2.80;1.85;;;;;;;22.13;30.26;101440.19;3577383;40;20076;-67
2021/06/03 05:55:22;;;;;;;2.75;1.80;;;;;;;22.14;30.72;101445.59;3580218;40;20045;-66
2021/06/03 05:57:50;;;;;;;3.08;2.08;;;;;;;22.16;30.41;101449.00;3572449;40;20047;-66
2021/06/03 06:00:23;;;;;;;3.38;2.10;;;;;;;22.21;30.88;101447.63;3579796;40;20510;-66
2021/06/03 06:02:54;;;;;;;3.57;1.90;;;;;;;22.19;30.90;101450.56;3578531;40;20076;-66
2021/06/03 06:08:10;;;;;;;3.50;1.80;;;;;;;22.21;30.70;101444.81;3577786;40;20438;-67
2021/06/03 06:10:39;;;;;;;3.10;2.00;;;;;;;22.23;30.43;101459.44;3573347;40;20079;-66
2021/06/03 06:13:07;;;;;;;3.03;1.85;;;;;;;22.24;30.65;101459.22;3576744;40;20049;-66
2021/06/03 06:15:36;;;;;;;3.28;2.03;;;;;;;22.27;30.68;101466.34;3578082;40;20056;-67
2021/06/03 06:18:06;;;;;;;3.40;2.20;;;;;;;22.27;30.82;101467.19;3577609;40;20047;-67
2021/06/03 06:20:38;;;;;;;3.28;2.40;;;;;;;22.30;31.41;101458.47;3575119;40;20045;-66
2021/06/03 06:23:07;;;;;;;;;;;;;;;22.01;30.84;101475.16;3577315;40;20057;-66
2021/06/03 06:25:35;;;;;;;3.35;1.98;;;;;;;22.26;30.66;101470.19;3574183;40;20295;-66
2021/06/03 06:28:04;;;;;;;3.08;2.05;;;;;;;22.32;30.86;101475.81;3576514;40;20044;-66
2021/06/03 06:30:32;;;;;;;2.65;1.85;;;;;;;22.36;30.94;101476.31;3576918;40;20056;-66
2021/06/03 06:33:01;;;;;;;4.05;2.15;;;;;;;22.38;31.55;101483.44;3573415;40;20380;-66
2021/06/03 06:35:30;;;;;;;3.55;2.00;;;;;;;22.44;31.94;101484.56;3575935;40;20069;-66
2021/06/03 06:37:59;;;;;;;3.67;2.10;;;;;;;22.49;31.98;101487.63;3576815;40;20394;-67
2021/06/03 06:40:27;;;;;;;3.75;1.98;;;;;;;22.58;31.73;101494.81;3572191;40;20076;-66
2021/06/03 06:42:55;;;;;;;3.28;1.90;;;;;;;22.68;32.61;101498.16;3575479;40;20048;-66
2021/06/03 06:45:24;;;;;;;3.65;2.35;;;;;;;22.81;32.12;101498.28;3577338;40;20406;-66
2021/06/03 06:47:53;;;;;;;4.63;2.67;;;;;;;22.94;32.38;101503.22;3573687;40;20065;-66
2021/06/03 06:50:23;;;;;;;4.13;2.50;;;;;;;23.09;32.17;101508.72;3570648;40;20082;-67
2021/06/03 06:52:53;;;;;;;3.83;2.33;;;;;;;23.22;32.21;101509.69;3572263;40;20103;-66
2021/06/03 06:55:22;;;;;;;4.70;2.33;;;;;;;23.33;32.05;101513.88;3578190;40;20084;-67
2021/06/03 06:57:51;;;;;;;4.50;2.30;;;;;;;23.43;31.93;101513.56;3573704;40;20056;-66
2021/06/03 07:00:21;;;;;;;3.60;2.05;;;;;;;23.55;31.41;101512.81;3571334;40;20060;-66
2021/06/03 07:02:50;;;;;;;3.28;2.05;;;;;;;23.63;31.42;101509.88;3572211;40;20049;-66
2021/06/03 07:05:21;;;;;;;3.17;2.10;;;;;;;23.73;31.26;101511.44;3575492;40;20550;-66
2021/06/03 07:07:49;;;;;;;3.67;2.20;;;;;;;23.79;31.36;101511.53;3577267;40;20060;-66
2021/06/03 07:10:19;;;;;;;4.00;2.15;;;;;;;23.88;31.04;101510.28;3575560;40;20402;-66
2021/06/03 07:12:48;;;;;;;4.32;2.40;;;;;;;23.93;31.15;101515.25;3575856;40;20061;-66
2021/06/03 07:15:17;;;;;;;4.63;2.30;;;;;;;23.96;31.09;101514.88;3579730;40;20065;-66
2021/06/03 07:17:45;;;;;;;3.95;2.17;;;;;;;23.99;31.00;101509.72;3580566;40;20044;-67
2021/06/03 07:20:18;;;;;;;3.53;2.40;;;;;;;24.02;31.14;101517.69;3580100;40;20057;-66
2021/06/03 07:22:48;;;;;;;3.45;2.08;;;;;;;24.03;31.02;101515.78;3577111;40;20045;-66
2021/06/03 07:25:20;;;;;;;3.22;2.17;;;;;;;24.04;30.97;101517.50;3574549;40;20041;-67
2021/06/03 07:27:49;;;;;;;3.40;2.05;;;;;;;24.01;30.79;101518.75;3573289;40;20134;-68
2021/06/03 07:30:20;;;;;;;2.80;1.88;;;;;;;24.05;30.94;101525.66;3576669;40;20319;-67
2021/06/03 07:32:48;;;;;;;3.45;2.40;;;;;;;24.03;30.68;101512.97;3575981;40;20077;-67
2021/06/03 07:35:16;;;;;;;3.42;2.17;;;;;;;24.04;30.79;101518.31;3576259;40;20109;-67
2021/06/03 07:37:45;;;;;;;3.50;2.10;;;;;;;24.05;30.89;101519.19;3577344;40;20052;-67
2021/06/03 07:40:15;;;;;;;3.80;2.50;;;;;;;24.05;31.17;101511.69;3576339;40;20059;-67
2021/06/03 07:42:50;;;;;;;3.25;2.08;;;;;;;24.05;31.85;101522.84;3571055;40;20045;-67
2021/06/03 07:45:22;;;;;;;3.80;1.98;;;;;;;24.04;31.63;101509.94;3574356;40;20141;-66
2021/06/03 07:47:52;;;;;;;2.90;2.20;;;;;;;24.02;32.30;101503.72;3575368;40;20130;-66
2021/06/03 07:50:21;;;;;;;3.53;2.17;;;;;;;24.01;31.92;101507.59;3576462;40;20053;-66
2021/06/03 07:52:49;;;;;;;3.13;2.03;;;;;;;24.02;32.37;101512.09;3577110;40;20053;-67
2021/06/03 07:55:18;;;;;;;3.65;2.08;;;;;;;24.02;32.75;101523.28;3578094;40;20138;-66
2021/06/03 07:57:50;;;;;;;4.63;2.45;;;;;;;24.01;32.62;101515.97;3576620;40;20049;-66
2021/06/03 08:00:21;;;;;;;4.30;2.15;;;;;;;23.98;32.95;101524.75;3576909;40;20045;-66
2021/06/03 08:02:50;;;;;;;3.45;2.42;;;;;;;23.98;32.91;101533.13;3579538;40;20052;-66
2021/06/03 08:05:20;;;;;;;3.28;2.13;;;;;;;24.00;33.11;101532.94;3575899;40;20089;-66
2021/06/03 08:07:50;;;;;;;3.65;2.20;;;;;;;23.97;33.43;101533.34;3569016;40;20052;-66
2021/06/03 08:10:24;;;;;;;3.40;2.40;;;;;;;23.97;33.75;101538.91;3575140;40;20064;-66
2021/06/03 08:12:54;;;;;;;3.67;2.55;;;;;;;23.96;33.44;101534.44;3579008;40;20044;-66
2021/06/03 08:15:24;;;;;;;3.22;2.28;;;;;;;23.94;33.28;101540.22;3578613;40;20089;-72
2021/06/03 08:17:54;;;;;;;3.35;2.03;;;;;;;23.90;33.50;101549.19;3577775;40;20307;-66
2021/06/03 08:20:26;;;;;;;4.30;2.42;;;;;;;23.92;33.48;101558.25;3582289;40;20052;-66
2021/06/03 08:22:53;;;;;;;4.30;2.05;;;;;;;23.91;33.60;101542.53;3578579;40;20394;-67
2021/06/03 08:25:21;;;;;;;3.25;2.17;;;;;;;23.88;33.44;101543.81;3576835;40;20057;-66
2021/06/03 08:27:49;;;;;;;3.97;2.33;;;;;;;23.87;33.97;101555.22;3575594;40;20051;-67
2021/06/03 08:30:20;;;;;;;3.80;2.38;;;;;;;23.85;33.46;101555.41;3575741;40;20056;-67
2021/06/03 08:32:52;;;;;;;4.63;2.65;;;;;;;23.82;34.50;101550.22;3571228;40;20484;-67
2021/06/03 08:35:22;;;;;;;4.13;2.35;;;;;;;23.80;33.93;101559.84;3578217;40;20390;-67
2021/06/03 08:37:53;;;;;;;5.47;2.80;;;;;;;23.78;34.21;101554.50;3578358;40;20051;-67
2021/06/03 08:40:25;;;;;;;3.78;2.42;;;;;;;23.77;33.75;101558.34;3578630;40;20068;-66
2021/06/03 08:42:55;;;;;;;3.97;2.72;;;;;;;23.75;34.57;101568.00;3578420;40;20063;-67
2021/06/03 08:45:26;;;;;;;4.50;2.60;;;;;;;23.75;34.93;101565.19;3578168;40;20048;-66
2021/06/03 08:47:54;;;;;;;4.32;2.55;;;;;;;23.68;34.36;101563.22;3577334;40;20116;-66
2021/06/03 08:50:26;;;;;;;4.07;2.65;;;;;;;23.70;34.70;101565.81;3576591;40;20121;-66
2021/06/03 08:52:55;;;;;;;4.30;2.83;;;;;;;23.70;34.77;101560.22;3583111;40;20341;-67
2021/06/03 08:58:18;;;;;;;3.75;2.13;;;;;;;23.74;35.49;101566.25;3577364;40;20088;-66
2021/06/03 09:00:47;;;;;;;3.47;2.65;;;;;;;23.73;34.77;101568.19;3578207;40;20052;-66
2021/06/03 09:03:17;;;;;;;4.07;2.45;;;;;;;23.75;34.51;101577.25;3579246;40;20085;-67
2021/06/03 09:05:46;;;;;;;4.22;2.55;;;;;;;23.76;34.87;101575.31;3578507;40;20061;-66
2021/06/03 09:08:19;;;;;;;4.72;2.80;;;;;;;23.81;35.56;101569.97;3578242;40;20126;-67
2021/06/03 09:10:49;;;;;;;4.15;2.65;;;;;;;23.84;35.43;101573.22;3578202;40;20056;-67
2021/06/03 09:13:19;;;;;;;3.92;2.50;;;;;;;23.87;35.51;101569.19;3577577;40;20096;-68
2021/06/03 09:15:51;;;;;;;3.58;2.38;;;;;;;23.90;35.23;101577.13;3578932;40;20048;-67
2021/06/03 09:18:27;;;;;;;3.90;2.45;;;;;;;23.93;35.61;101576.75;3576907;40;20138;-67
2021/06/03 09:20:56;;;;;;;3.60;2.45;;;;;;;23.95;35.13;101574.63;3568064;40;20080;-68
2021/06/03 09:23:30;;;;;;;4.70;2.60;;;;;;;24.00;35.54;101580.44;3577911;40;20052;-68
2021/06/03 09:26:00;;;;;;;4.57;2.40;;;;;;;24.00;34.91;101575.72;3577787;40;20122;-68
2021/06/03 09:28:30;;;;;;;4.07;2.50;;;;;;;24.04;35.40;101585.41;3578667;40;20410;-68
2021/06/03 09:31:10;;;;;;;3.90;2.53;;;;;;;24.06;35.08;101583.31;3579340;40;20414;-67
2021/06/03 09:33:49;;;;;;;3.47;2.25;;;;;;;24.09;35.29;101578.41;3577643;40;20056;-66
2021/06/03 09:36:20;;;;;;;4.18;2.65;;;;;;;24.08;35.15;101577.53;3575355;40;20056;-68
2021/06/03 09:39:08;;;;;;;3.35;2.22;;;;;;;24.09;35.13;101584.84;3577492;40;20068;-66
2021/06/03 09:41:40;;;;;;;3.67;2.53;;;;;;;24.09;35.24;101593.22;3576358;40;20048;-67
2021/06/03 09:44:11;;;;;;;;;;;;;;;23.79;34.73;101586.97;3579233;40;20115;-66
2021/06/03 09:46:44;;;;;;;3.83;2.33;;;;;;;24.09;35.34;101600.75;3566929;40;20416;-66
2021/06/03 09:49:17;;;;;;;;;;;;;;;23.80;35.18;101593.38;3577896;40;20056;-67
2021/06/03 09:51:50;;;;;;;3.63;2.53;;;;;;;24.09;35.60;101597.97;3574585;40;19941;-66
2021/06/03 09:54:21;;;;;;;3.80;2.33;;;;;;;24.11;34.84;101595.84;3573386;40;20085;-66
2021/06/03 09:56:51;;;;;;;4.75;2.60;;;;;;;24.11;34.87;101588.31;3577374;40;20325;-66
2021/06/03 09:59:23;;;;;;;4.03;2.60;;;;;;;24.13;35.07;101586.16;3574442;40;20048;-67
2021/06/03 10:01:57;;;;;;;4.15;2.67;;;;;;;24.12;35.32;101592.84;3576003;40;20053;-66
2021/06/03 10:04:30;;;;;;;4.20;3.03;;;;;;;24.14;35.08;101589.81;3573675;40;20081;-67
2021/06/03 10:07:04;;;;;;;3.95;2.58;;;;;;;24.12;35.06;101595.63;3575129;40;20364;-67
2021/06/03 10:09:41;;;;;;;6.32;2.95;;;;;;;24.13;35.75;101599.25;3573569;40;20061;-67
2021/06/03 10:12:10;;;;;;;4.70;2.92;;;;;;;24.09;35.38;101592.38;3575113;40;20060;-68
2021/06/03 10:14:39;;;;;;;4.55;2.95;;;;;;;24.08;35.65;101594.31;3577008;40;20418;-68
2021/06/03 10:17:20;;;;;;;4.63;3.00;;;;;;;24.09;36.24;101597.97;3576999;40;20075;-68
2021/06/03 10:19:51;;;;;;;4.32;2.45;;;;;;;24.05;35.79;101595.53;3576968;40;20084;-65
2021/06/03 10:22:22;;;;;;;4.90;2.90;;;;;;;24.05;36.08;101603.03;3577661;40;20475;-66
2021/06/03 10:25:11;;;;;;;5.65;3.17;;;;;;;24.07;36.88;101606.53;3577525;40;20314;-68
2021/06/03 10:27:42;;;;;;;5.35;3.08;;;;;;;24.03;37.11;101600.47;3579832;40;20061;-66
2021/06/03 10:30:14;;;;;;;5.50;3.20;;;;;;;24.03;37.06;101594.03;3573031;40;20432;-66
2021/06/03 10:32:46;;;;;;;4.78;3.28;;;;;;;24.02;37.05;101598.75;3577833;40;20299;-66
2021/06/03 10:35:17;;;;;;;4.80;3.40;;;;;;;23.99;37.31;101598.28;3578715;40;20044;-66
2021/06/03 10:37:47;;;;;;;5.22;3.10;;;;;;;23.99;37.76;101601.94;3576513;40;20029;-66
2021/06/03 10:40:17;;;;;;;5.10;3.35;;;;;;;24.00;37.47;101597.22;3574512;40;20057;-65
2021/06/03 10:42:51;;;;;;;5.95;3.25;;;;;;;23.97;37.58;101595.69;3583221;40;20029;-66
2021/06/03 10:45:22;;;;;;;6.05;3.30;;;;;;;23.98;38.12;101596.53;3575509;40;20061;-66
2021/06/03 10:47:52;;;;;;;5.57;3.20;;;;;;;23.97;38.27;101601.28;3584880;40;20049;-66
2021/06/03 10:50:25;;;;;;;4.90;3.17;;;;;;;23.96;38.44;101602.34;3578421;40;20077;-66
2021/06/03 10:52:56;;;;;;;4.68;2.78;;;;;;;23.93;38.37;101605.56;3578892;40;20072;-66
2021/06/03 10:55:29;;;;;;;3.83;2.78;;;;;;;23.96;38.18;101607.09;3578790;40;20057;-66
2021/06/03 10:58:01;;;;;;;3.40;2.33;;;;;;;23.94;38.19;101606.41;3578358;40;20049;-67
2021/06/03 11:00:32;;;;;;;4.82;2.70;;;;;;;23.97;38.36;101603.19;3577822;40;20318;-67
2021/06/03 11:03:05;;;;;;;4.43;2.33;;;;;;;23.96;38.53;101607.91;3578636;40;20080;-67
2021/06/03 11:05:37;;;;;;;3.83;2.33;;;;;;;23.97;38.00;101600.41;3574321;40;20127;-66
2021/06/03 11:08:27;;;;;;;3.05;1.98;;;;;;;23.98;37.86;101610.53;3575790;40;20049;-66
2021/06/03 11:11:17;;;;;;;3.75;2.63;;;;;;;24.00;38.05;101605.59;3580542;40;20063;-66
2021/06/03 11:14:05;;;;;;;3.83;2.63;;;;;;;24.02;39.03;101597.88;3581172;40;20060;-65
2021/06/03 11:16:51;;;;;;;4.63;2.60;;;;;;;24.08;39.32;101602.69;3575589;40;20045;-68
2021/06/03 11:19:25;;;;;;;4.18;2.95;;;;;;;24.10;38.59;101605.28;3580428;40;20056;-68
2021/06/03 11:22:10;;;;;;;3.80;3.00;;;;;;;24.12;38.90;101598.44;3570300;40;20065;-68
2021/06/03 11:24:48;;;;;;;4.10;3.05;;;;;;;24.12;38.61;101597.56;3574210;40;20041;-68
2021/06/03 11:27:18;;;;;;;3.85;2.80;;;;;;;24.14;38.95;101590.69;3575740;40;20053;-68
2021/06/03 11:30:00;;;;;;;4.30;3.20;;;;;;;24.19;39.23;101590.94;3576487;40;20056;-69
2021/06/03 11:32:34;;;;;;;4.80;3.25;;;;;;;24.21;38.55;101593.53;3576232;40;20111;-68
2021/06/03 11:35:08;;;;;;;4.35;2.65;;;;;;;24.27;39.36;101590.78;3576892;40;20388;-67
2021/06/03 11:37:49;;;;;;;4.07;2.78;;;;;;;24.30;39.42;101584.75;3576474;40;20134;-66
2021/06/03 11:40:21;;;;;;;4.60;2.72;;;;;;;24.34;38.55;101586.09;3575482;40;20045;-68
2021/06/03 11:42:50;;;;;;;4.85;3.15;;;;;;;24.36;38.12;101580.31;3575033;40;20139;-67
2021/06/03 11:45:43;;;;;;;4.72;2.78;;;;;;;24.40;38.18;101576.00;3577667;40;20041;-67
2021/06/03 11:48:16;;;;;;;4.55;3.15;;;;;;;24.44;38.43;101569.81;3576494;40;20061;-67
2021/06/03 11:51:00;;;;;;;5.57;2.83;;;;;;;24.50;38.75;101575.63;3576300;40;20389;-67